Terminal Aerodrome Forecast
Issued by NWS Boston, MA

Home | Current Version | Previous Version | Text Only | Print | Product List | Glossary On
Versions: 1 2 3 4 5 6 7 8 9 10 11 12 13 14 15 16 17 18 19 20 21 22 23
000
FTUS41 KBOX 260258 AAA
TAFBDL
TAF AMD
KBDL 260258Z 2603/2706 02012KT 3SM -RA BR OVC005
     FM260600 02012KT 2SM -RA BR VCTS OVC005CB
     FM261200 33005KT 5SM BR VCSH OVC005
     FM261400 33010KT P6SM VCSH OVC008
     FM261700 32010KT P6SM OVC020
     FM262200 32010KT P6SM OVC035=

USA.gov is the U.S. government's official web portal to all federal, state and local government web resources and services.